0S9

Jefferson County International Airport

Port Townsend, Washington, USA
METAR K0S9 151235Z AUTO 00000KT 4SM BR SCT041 OVC060 10/09 A2989 RMK AO2
Observed Flight Rules
Aug-15 @ 12:35 UTC (6 minutes ago) Marginal Visual Flight Rules
Visibility Clouds Conditions
4 miles
  • Scattered at 4,100' AGL
  • Overcast at 6,000' AGL
  • Mist
Temperatures Readings
Current 10°C / 50°F
Dewpoint 9°C / 48°F
Humidity 94%
Altimeter 29.89" Hg
Pressure 1012 hPa
Elevation 33
METAR K0S9 151235Z AUTO 00000KT 4SM BR SCT041 OVC060 10/09 A2989 RMK AO2
Observed Flight Rules
Aug-15 @ 12:35 UTC
(6 minutes ago)
MVFR
Clouds
  • Scattered at 4,100' AGL
  • Overcast at 6,000' AGL
Conditions
  • Mist
Temperature Dewpoint
10°C / 50°F 9°C / 48°F
Humidity Altimeter Pressure
94% 29.89" Hg 1012 hPa